createdAt,value
2023-08-19T00:02:00.326Z,19.05
2023-08-19T00:04:26.761Z,17.70
2023-08-19T00:06:53.180Z,17.38
2023-08-19T00:09:19.607Z,17.55
2023-08-19T00:11:46.019Z,18.65
2023-08-19T00:14:12.455Z,18.17
2023-08-19T00:16:39.184Z,17.17
2023-08-19T00:19:06.110Z,16.63
2023-08-19T00:21:32.587Z,16.95
2023-08-19T00:23:59.011Z,16.92
2023-08-19T00:26:26.448Z,17.33
2023-08-19T00:28:52.961Z,16.75
2023-08-19T00:31:19.568Z,16.75
2023-08-19T00:33:46.169Z,17.88
2023-08-19T00:36:12.542Z,18.23
2023-08-19T00:38:39.944Z,17.77
2023-08-19T00:41:06.296Z,16.95
2023-08-19T00:43:32.667Z,17.92
2023-08-19T00:45:59.252Z,18.38
2023-08-19T00:48:26.546Z,17.42
2023-08-19T00:50:53.142Z,17.05
2023-08-19T00:53:19.540Z,17.80
2023-08-19T00:55:45.874Z,17.95
2023-08-19T00:58:12.722Z,17.48
2023-08-19T01:00:39.369Z,19.45
2023-08-19T01:03:05.917Z,18.63
2023-08-19T01:05:49.439Z,19.17
2023-08-19T01:08:19.242Z,20.85
2023-08-19T01:10:54.207Z,18.25
2023-08-19T01:13:22.010Z,19.23
2023-08-19T01:15:48.445Z,22.02
2023-08-19T01:18:16.225Z,18.85
2023-08-19T01:20:42.926Z,18.35
2023-08-19T01:23:16.059Z,18.48
2023-08-19T01:25:43.732Z,19.00
2023-08-19T01:28:10.089Z,18.90
2023-08-19T01:30:36.501Z,21.30
2023-08-19T01:33:03.722Z,19.15
2023-08-19T01:35:36.580Z,19.48
2023-08-19T01:38:06.764Z,19.45
2023-08-19T01:40:33.490Z,19.60
2023-08-19T01:43:00.645Z,19.27
2023-08-19T01:45:27.340Z,19.83
2023-08-19T01:47:54.808Z,19.27
2023-08-19T01:50:21.546Z,18.15
2023-08-19T01:52:48.128Z,19.45
2023-08-19T01:55:14.493Z,19.20
2023-08-19T01:57:40.884Z,18.83
2023-08-19T02:00:08.759Z,21.02
2023-08-19T02:02:35.169Z,21.48
2023-08-19T02:05:01.578Z,20.85
2023-08-19T02:07:27.986Z,19.73
2023-08-19T02:09:54.427Z,19.85
2023-08-19T02:12:20.750Z,19.80
2023-08-19T02:14:47.185Z,20.73
2023-08-19T02:17:13.580Z,20.77
2023-08-19T02:19:40.005Z,20.85
2023-08-19T02:22:07.211Z,21.23
2023-08-19T02:24:33.663Z,20.17
2023-08-19T02:27:00.115Z,20.92
2023-08-19T02:29:26.518Z,20.83
2023-08-19T02:31:52.894Z,19.42
2023-08-19T02:34:19.309Z,18.73
2023-08-19T02:36:45.859Z,19.77
2023-08-19T02:39:12.643Z,19.08
2023-08-19T02:41:39.086Z,18.90
2023-08-19T02:44:05.552Z,19.98
2023-08-19T02:46:32.403Z,19.67
2023-08-19T02:48:58.825Z,19.40
2023-08-19T02:51:25.246Z,19.08
2023-08-19T02:53:51.674Z,20.30
2023-08-19T02:56:18.048Z,18.52
2023-08-19T02:58:44.424Z,19.80
2023-08-19T03:01:14.579Z,18.77
2023-08-19T03:06:07.467Z,21.85
2023-08-19T03:08:33.860Z,21.42
2023-08-19T03:11:00.328Z,22.42
2023-08-19T03:13:26.688Z,21.67
2023-08-19T03:15:53.100Z,20.45
2023-08-19T03:18:19.574Z,20.60
2023-08-19T03:20:45.976Z,20.30
2023-08-19T03:23:12.355Z,19.73
2023-08-19T03:25:38.751Z,19.30
2023-08-19T03:28:05.399Z,20.77
2023-08-19T03:30:31.797Z,20.98
2023-08-19T03:32:58.339Z,20.52
2023-08-19T03:35:24.772Z,21.50
2023-08-19T03:37:51.214Z,20.02
2023-08-19T03:40:17.608Z,19.73
2023-08-19T03:42:43.983Z,20.95
2023-08-19T03:45:10.490Z,19.33
2023-08-19T03:47:36.937Z,17.85
2023-08-19T03:50:03.509Z,18.70
2023-08-19T03:52:29.892Z,19.33
2023-08-19T03:54:56.676Z,19.75
2023-08-19T03:57:23.073Z,18.40
2023-08-19T03:59:50.021Z,18.75
2023-08-19T04:02:16.528Z,17.60
2023-08-19T04:05:02.539Z,17.42
2023-08-19T04:07:29.280Z,17.30
2023-08-19T04:09:58.112Z,17.63
2023-08-19T04:12:25.025Z,18.92
2023-08-19T04:14:51.855Z,17.45
2023-08-19T04:17:18.638Z,18.20
2023-08-19T04:19:45.424Z,17.73
2023-08-19T04:22:18.790Z,18.58
2023-08-19T04:24:54.101Z,18.10
2023-08-19T04:27:20.570Z,18.80
2023-08-19T04:29:47.126Z,19.63
2023-08-19T04:32:14.338Z,20.10
2023-08-19T04:34:40.748Z,18.92
2023-08-19T04:37:08.061Z,18.40
2023-08-19T04:39:34.627Z,17.77
2023-08-19T04:42:01.073Z,17.27
2023-08-19T04:44:27.629Z,18.17
2023-08-19T04:46:54.016Z,17.92
2023-08-19T04:49:21.780Z,19.58
2023-08-19T04:51:48.207Z,20.02
2023-08-19T04:54:14.621Z,19.92
2023-08-19T04:56:41.070Z,18.88
2023-08-19T04:59:07.518Z,20.50
2023-08-19T05:01:33.924Z,19.85
2023-08-19T05:04:00.363Z,20.05
2023-08-19T05:06:26.862Z,19.17
2023-08-19T05:08:53.228Z,17.38
2023-08-19T05:11:19.632Z,19.55
2023-08-19T05:13:45.992Z,17.52
2023-08-19T05:16:14.039Z,16.50
2023-08-19T05:18:40.660Z,19.40
2023-08-19T05:21:07.024Z,18.52
2023-08-19T05:23:33.443Z,17.55
2023-08-19T05:26:00.018Z,17.10
2023-08-19T05:28:26.390Z,17.40
2023-08-19T05:30:52.778Z,17.95
2023-08-19T05:33:19.160Z,18.08
2023-08-19T05:35:45.667Z,18.08
2023-08-19T05:38:12.034Z,17.45
2023-08-19T05:40:38.471Z,18.42
2023-08-19T05:43:04.854Z,18.50
2023-08-19T05:45:33.269Z,18.77
2023-08-19T05:47:59.741Z,20.08
2023-08-19T05:50:27.789Z,19.55
2023-08-19T05:52:54.253Z,19.33
2023-08-19T05:55:20.840Z,19.88
2023-08-19T05:57:47.255Z,20.52
2023-08-19T06:00:13.728Z,20.17
2023-08-19T06:02:40.772Z,19.83
2023-08-19T06:05:07.530Z,20.02
2023-08-19T06:07:35.207Z,18.73
2023-08-19T06:10:01.845Z,19.75
2023-08-19T06:12:28.458Z,17.55
2023-08-19T06:14:55.179Z,17.02
2023-08-19T06:17:21.730Z,15.80
2023-08-19T06:19:48.082Z,15.98
2023-08-19T06:22:14.475Z,16.30
2023-08-19T06:24:40.834Z,15.45
2023-08-19T06:27:07.208Z,15.60
2023-08-19T06:29:34.778Z,15.80
2023-08-19T06:32:01.324Z,15.20
2023-08-19T06:34:27.854Z,15.68
2023-08-19T06:36:56.419Z,14.93
2023-08-19T06:39:26.976Z,15.05
2023-08-19T06:41:59.637Z,14.73
2023-08-19T06:44:27.206Z,15.15
2023-08-19T06:46:54.546Z,15.15
2023-08-19T06:49:21.010Z,15.68
2023-08-19T06:51:47.815Z,14.35
2023-08-19T06:54:14.481Z,14.48
2023-08-19T06:56:48.696Z,14.15
2023-08-19T06:59:30.195Z,14.10
2023-08-19T07:01:58.141Z,13.00
2023-08-19T07:04:29.094Z,14.40
2023-08-19T07:06:57.639Z,14.50
2023-08-19T07:09:24.960Z,14.65
2023-08-19T07:11:56.093Z,13.85
2023-08-19T07:14:23.539Z,13.75
2023-08-19T07:16:50.504Z,15.30
2023-08-19T07:19:19.710Z,13.75
2023-08-19T07:21:48.070Z,13.68
2023-08-19T07:24:14.993Z,13.10
2023-08-19T07:26:41.620Z,13.45
2023-08-19T07:29:08.290Z,12.63
2023-08-19T07:31:35.013Z,13.13
2023-08-19T07:34:01.392Z,14.00
2023-08-19T07:36:28.204Z,13.50
2023-08-19T07:38:55.054Z,14.02
2023-08-19T07:41:22.535Z,13.90
2023-08-19T07:43:49.165Z,14.30
2023-08-19T07:46:18.616Z,14.38
2023-08-19T07:48:50.196Z,14.57
2023-08-19T07:51:17.106Z,13.43
2023-08-19T07:53:43.583Z,13.10
2023-08-19T07:56:12.223Z,14.52
2023-08-19T07:58:38.843Z,13.05
2023-08-19T08:01:06.364Z,13.30
2023-08-19T08:03:34.224Z,14.15
2023-08-19T08:06:06.248Z,13.75
2023-08-19T08:08:32.972Z,13.73
2023-08-19T08:10:59.607Z,13.52
2023-08-19T08:13:26.636Z,12.32
2023-08-19T08:15:54.193Z,13.00
2023-08-19T08:18:20.667Z,12.80
2023-08-19T08:20:47.159Z,12.88
2023-08-19T08:23:14.717Z,12.93
2023-08-19T08:25:41.574Z,12.45
2023-08-19T08:28:08.087Z,12.75
2023-08-19T08:30:34.828Z,12.98
2023-08-19T08:33:04.093Z,12.88
2023-08-19T08:35:30.973Z,13.35
2023-08-19T08:37:57.618Z,12.30
2023-08-19T08:40:24.215Z,12.85
2023-08-19T08:42:53.624Z,12.13
2023-08-19T08:45:20.997Z,12.27
2023-08-19T08:47:47.948Z,12.07
2023-08-19T08:50:14.626Z,12.02
2023-08-19T08:52:41.749Z,11.88
2023-08-19T08:55:08.375Z,11.57
2023-08-19T08:57:35.083Z,10.50
2023-08-19T09:00:04.194Z,10.95
2023-08-19T09:02:31.238Z,10.52
2023-08-19T09:04:58.932Z,11.52
2023-08-19T09:07:26.433Z,10.82
2023-08-19T09:09:53.629Z,10.05
2023-08-19T09:12:21.464Z,9.95
2023-08-19T09:14:48.455Z,10.68
2023-08-19T09:17:18.464Z,10.00
2023-08-19T09:22:17.394Z,10.43
2023-08-19T09:24:44.140Z,8.82
2023-08-19T09:27:11.076Z,8.20
2023-08-19T09:29:37.651Z,8.27
2023-08-19T09:32:04.236Z,8.00
2023-08-19T09:34:34.031Z,8.77
2023-08-19T09:37:00.842Z,8.80
2023-08-19T09:39:41.030Z,7.38
2023-08-19T09:42:13.041Z,8.68
2023-08-19T09:44:41.320Z,9.05
2023-08-19T09:47:31.500Z,8.50
2023-08-19T09:49:58.231Z,8.68
2023-08-19T09:52:24.765Z,8.32
2023-08-19T09:54:54.758Z,9.93
2023-08-19T09:57:34.271Z,9.02
2023-08-19T10:00:01.258Z,9.30
2023-08-19T10:02:31.139Z,8.80
2023-08-19T10:04:57.842Z,8.55
2023-08-19T10:07:28.117Z,8.75
2023-08-19T10:09:55.214Z,8.57
2023-08-19T10:12:22.738Z,9.85
2023-08-19T10:14:50.672Z,9.63
2023-08-19T10:17:17.275Z,8.30
2023-08-19T10:19:46.558Z,9.68
2023-08-19T10:22:15.025Z,8.77
2023-08-19T10:24:41.973Z,8.88
2023-08-19T10:27:16.126Z,9.07
2023-08-19T10:29:43.647Z,9.50
2023-08-19T10:32:28.770Z,9.45
2023-08-19T10:35:05.569Z,9.00
2023-08-19T10:37:33.099Z,8.60
2023-08-19T10:40:06.719Z,7.90
2023-08-19T10:42:33.276Z,7.97
2023-08-19T10:44:59.852Z,9.25
2023-08-19T10:47:26.243Z,8.73
2023-08-19T10:50:00.646Z,8.95
2023-08-19T10:52:26.958Z,8.88
2023-08-19T10:54:53.553Z,9.68
2023-08-19T10:57:23.424Z,9.57
2023-08-19T11:00:02.957Z,9.23
2023-08-19T11:02:30.431Z,9.13
2023-08-19T11:04:58.588Z,9.43
2023-08-19T11:07:26.092Z,9.13
2023-08-19T11:09:53.145Z,8.20
2023-08-19T11:12:20.748Z,8.70
2023-08-19T11:14:48.555Z,8.73
2023-08-19T11:17:16.390Z,8.77
2023-08-19T11:19:42.973Z,8.82
2023-08-19T11:22:15.784Z,8.68
2023-08-19T11:24:42.471Z,8.88
2023-08-19T11:27:09.245Z,9.27
2023-08-19T11:29:41.630Z,9.20
2023-08-19T11:32:09.030Z,8.50
2023-08-19T11:34:35.651Z,7.38
2023-08-19T11:37:08.050Z,8.02
2023-08-19T11:39:34.715Z,7.38
2023-08-19T11:42:02.037Z,8.45
2023-08-19T11:44:28.398Z,8.43
2023-08-19T11:46:58.612Z,8.35
2023-08-19T11:49:28.839Z,8.60
2023-08-19T11:51:55.178Z,7.75
2023-08-19T11:54:22.630Z,8.32
2023-08-19T11:56:49.924Z,8.05
2023-08-19T11:59:16.770Z,7.80
2023-08-19T12:01:45.500Z,8.35
2023-08-19T12:04:13.010Z,7.88
2023-08-19T12:06:40.023Z,7.65
2023-08-19T12:09:07.089Z,7.35
2023-08-19T12:11:34.536Z,7.20
2023-08-19T12:14:00.881Z,8.55
2023-08-19T12:16:27.935Z,8.07
2023-08-19T12:18:54.385Z,7.60
2023-08-19T12:21:20.775Z,7.10
2023-08-19T12:23:47.126Z,7.88
2023-08-19T12:26:13.521Z,7.97
2023-08-19T12:28:39.980Z,8.82
2023-08-19T12:31:06.396Z,8.35
2023-08-19T12:33:32.805Z,8.23
2023-08-19T12:36:16.000Z,8.95
2023-08-19T12:38:44.124Z,8.68
2023-08-19T12:41:10.507Z,7.88
2023-08-19T12:43:39.207Z,7.93
2023-08-19T12:46:06.095Z,8.15
2023-08-19T12:48:33.258Z,7.40
2023-08-19T12:50:59.693Z,8.45
2023-08-19T12:53:26.093Z,8.85
2023-08-19T12:55:52.536Z,9.23
2023-08-19T12:58:19.329Z,7.57
2023-08-19T13:00:45.731Z,7.70
2023-08-19T13:03:12.131Z,7.93
2023-08-19T13:05:38.632Z,7.38
2023-08-19T13:08:05.779Z,7.65
2023-08-19T13:10:34.571Z,7.68
2023-08-19T13:13:02.172Z,7.55
2023-08-19T13:15:28.651Z,8.35
2023-08-19T13:17:55.088Z,9.00
2023-08-19T13:20:23.927Z,8.15
2023-08-19T13:22:50.473Z,8.40
2023-08-19T13:25:17.026Z,8.07
2023-08-19T13:27:43.384Z,8.18
2023-08-19T13:30:10.171Z,7.97
2023-08-19T13:32:37.215Z,8.05
2023-08-19T13:35:07.241Z,7.82
2023-08-19T13:40:00.809Z,8.00
2023-08-19T13:42:27.186Z,8.65
2023-08-19T13:44:55.656Z,8.00
2023-08-19T13:47:23.221Z,9.05
2023-08-19T13:49:49.648Z,8.50
2023-08-19T13:52:34.962Z,8.20
2023-08-19T13:55:01.324Z,8.15
2023-08-19T13:57:27.682Z,8.38
2023-08-19T13:59:54.035Z,8.23
2023-08-19T14:02:20.440Z,8.85
2023-08-19T14:05:01.042Z,9.30
2023-08-19T14:07:34.174Z,9.07
2023-08-19T14:10:02.911Z,9.23
2023-08-19T14:12:31.769Z,8.57
2023-08-19T14:14:58.340Z,8.70
2023-08-19T14:17:25.033Z,8.88
2023-08-19T14:19:53.544Z,8.88
2023-08-19T14:22:19.901Z,8.98
2023-08-19T14:24:46.317Z,9.15
2023-08-19T14:27:12.692Z,10.05
2023-08-19T14:29:39.066Z,9.23
2023-08-19T14:32:06.529Z,10.00
2023-08-19T14:34:34.667Z,10.07
2023-08-19T14:37:01.082Z,9.43
2023-08-19T14:39:27.522Z,9.70
2023-08-19T14:41:53.863Z,10.00
2023-08-19T14:44:20.270Z,9.80
2023-08-19T14:46:46.663Z,10.20
2023-08-19T14:49:13.868Z,10.10
2023-08-19T14:51:40.247Z,9.90
2023-08-19T14:54:06.666Z,9.77
2023-08-19T14:56:34.327Z,10.25
2023-08-19T14:59:00.715Z,10.73
2023-08-19T15:01:27.142Z,10.38
2023-08-19T15:03:53.653Z,10.18
2023-08-19T15:06:20.158Z,9.93
2023-08-19T15:08:46.547Z,9.82
2023-08-19T15:11:13.052Z,10.52
2023-08-19T15:13:39.394Z,9.30
2023-08-19T15:16:05.832Z,9.50
2023-08-19T15:18:32.235Z,9.20
2023-08-19T15:20:58.616Z,9.23
2023-08-19T15:23:25.142Z,8.90
2023-08-19T15:25:51.514Z,8.73
2023-08-19T15:28:17.906Z,8.82
2023-08-19T15:30:44.262Z,8.13
2023-08-19T15:33:10.896Z,9.57
2023-08-19T15:35:37.274Z,8.60
2023-08-19T15:38:04.324Z,9.13
2023-08-19T15:40:30.693Z,9.20
2023-08-19T15:42:57.117Z,9.18
2023-08-19T15:45:23.545Z,9.43
2023-08-19T15:47:50.014Z,9.50
2023-08-19T15:50:16.403Z,9.48
2023-08-19T15:52:42.751Z,9.88
2023-08-19T15:55:09.963Z,8.82
2023-08-19T15:57:36.695Z,9.20
2023-08-19T16:00:04.409Z,8.70
2023-08-19T16:02:30.750Z,8.68
2023-08-19T16:04:57.120Z,8.98
2023-08-19T16:07:33.441Z,8.70
2023-08-19T16:10:00.296Z,9.48
2023-08-19T16:12:27.845Z,8.73
2023-08-19T16:14:54.310Z,8.95
2023-08-19T16:17:20.687Z,9.18
2023-08-19T16:19:47.298Z,10.10
2023-08-19T16:22:15.260Z,9.73
2023-08-19T16:24:41.903Z,9.80
2023-08-19T16:27:08.351Z,9.32
2023-08-19T16:29:37.370Z,13.35
2023-08-19T16:32:04.200Z,9.35
2023-08-19T16:34:31.033Z,9.43
2023-08-19T16:36:57.423Z,9.85
2023-08-19T16:39:23.858Z,9.73
2023-08-19T16:41:50.322Z,8.45
2023-08-19T16:44:16.667Z,9.65
2023-08-19T16:46:43.106Z,9.35
2023-08-19T16:49:09.519Z,9.55
2023-08-19T16:51:35.908Z,9.35
2023-08-19T16:54:02.338Z,9.88
2023-08-19T16:56:28.705Z,9.75
2023-08-19T16:58:55.067Z,9.55
2023-08-19T17:01:21.492Z,9.05
2023-08-19T17:03:48.548Z,10.68
2023-08-19T17:06:16.708Z,10.07
2023-08-19T17:08:44.261Z,9.88
2023-08-19T17:11:11.771Z,9.55
2023-08-19T17:13:38.204Z,9.02
2023-08-19T17:16:04.797Z,9.23
2023-08-19T17:18:31.220Z,9.35
2023-08-19T17:21:00.814Z,8.98
2023-08-19T17:23:29.960Z,8.85
2023-08-19T17:25:56.817Z,9.52
2023-08-19T17:28:23.400Z,9.65
2023-08-19T17:30:52.016Z,10.27
2023-08-19T17:33:21.615Z,8.73
2023-08-19T17:35:51.178Z,9.73
2023-08-19T17:38:17.727Z,10.00
2023-08-19T17:40:46.216Z,10.02
2023-08-19T17:43:14.744Z,9.30
2023-08-19T17:45:41.113Z,9.10
2023-08-19T17:48:07.656Z,9.23
2023-08-19T17:50:34.090Z,9.30
2023-08-19T17:53:01.577Z,9.15
2023-08-19T17:55:27.962Z,9.00
2023-08-19T17:57:54.495Z,9.07
2023-08-19T18:00:20.938Z,9.90
2023-08-19T18:02:49.643Z,8.85
2023-08-19T18:05:16.093Z,8.98
2023-08-19T18:07:42.513Z,9.50
2023-08-19T18:10:08.998Z,9.20
2023-08-19T18:12:35.642Z,9.50
2023-08-19T18:15:05.692Z,9.68
2023-08-19T18:19:58.584Z,9.52
2023-08-19T18:22:24.955Z,9.63
2023-08-19T18:24:51.347Z,9.35
2023-08-19T18:27:18.825Z,9.57
2023-08-19T18:29:45.306Z,9.55
2023-08-19T18:32:11.743Z,10.00
2023-08-19T18:34:42.319Z,9.57
2023-08-19T18:37:10.203Z,10.90
2023-08-19T18:39:36.661Z,10.38
2023-08-19T18:42:05.306Z,9.45
2023-08-19T18:44:31.863Z,10.88
2023-08-19T18:46:58.761Z,11.65
2023-08-19T18:49:29.394Z,11.15
2023-08-19T18:51:55.830Z,11.90
2023-08-19T18:54:25.528Z,11.85
2023-08-19T18:56:53.091Z,11.27
2023-08-19T18:59:20.651Z,12.02
2023-08-19T19:01:48.322Z,11.02
2023-08-19T19:04:14.930Z,11.98
2023-08-19T19:06:43.624Z,11.95
2023-08-19T19:09:11.202Z,13.30
2023-08-19T19:11:37.691Z,12.43
2023-08-19T19:14:05.246Z,15.25
2023-08-19T19:16:33.001Z,13.55
2023-08-19T19:19:03.545Z,15.43
2023-08-19T19:21:30.618Z,13.40
2023-08-19T19:24:02.457Z,14.38
2023-08-19T19:26:32.560Z,14.07
2023-08-19T19:31:28.870Z,14.50
2023-08-19T19:33:56.413Z,13.10
2023-08-19T19:36:24.044Z,15.02
2023-08-19T19:38:50.542Z,14.10
2023-08-19T19:41:17.099Z,14.80
2023-08-19T19:43:43.548Z,13.88
2023-08-19T19:46:10.141Z,14.75
2023-08-19T19:48:36.566Z,14.23
2023-08-19T19:51:04.772Z,14.43
2023-08-19T19:53:31.212Z,13.75
2023-08-19T19:56:08.977Z,13.93
2023-08-19T19:58:37.603Z,13.38
2023-08-19T20:01:04.183Z,13.00
2023-08-19T20:03:33.788Z,13.57
2023-08-19T20:06:00.279Z,13.98
2023-08-19T20:08:30.868Z,13.75
2023-08-19T20:10:58.364Z,14.18
2023-08-19T20:13:24.820Z,14.70
2023-08-19T20:15:51.356Z,14.50
2023-08-19T20:18:23.812Z,17.08
2023-08-19T20:20:52.479Z,15.38
2023-08-19T20:23:21.087Z,15.60
2023-08-19T20:25:49.537Z,16.30
2023-08-19T20:28:15.961Z,15.07
2023-08-19T20:30:46.504Z,15.95
2023-08-19T20:33:14.295Z,18.20
2023-08-19T20:35:44.040Z,15.65
2023-08-19T20:38:17.662Z,15.63
2023-08-19T20:40:45.172Z,16.42
2023-08-19T20:43:11.765Z,16.27
2023-08-19T20:45:38.341Z,16.00
2023-08-19T20:48:05.174Z,19.05
2023-08-19T20:50:31.745Z,17.35
2023-08-19T20:53:01.406Z,18.42
2023-08-19T20:55:28.916Z,17.90
2023-08-19T20:57:55.587Z,16.85
2023-08-19T21:00:27.258Z,17.75
2023-08-19T21:02:59.861Z,17.60
2023-08-19T21:05:26.396Z,16.23
2023-08-19T21:07:53.017Z,16.92
2023-08-19T21:10:22.682Z,17.58
2023-08-19T21:12:54.184Z,16.30
2023-08-19T21:15:20.795Z,17.70
2023-08-19T21:17:47.466Z,16.10
2023-08-19T21:20:14.185Z,16.58
2023-08-19T21:22:46.908Z,18.77
2023-08-19T21:25:13.451Z,17.30
2023-08-19T21:27:41.662Z,17.98
2023-08-19T21:30:08.596Z,16.73
2023-08-19T21:32:38.325Z,17.45
2023-08-19T21:35:05.525Z,17.20
2023-08-19T21:37:32.141Z,17.80
2023-08-19T21:39:58.666Z,20.67
2023-08-19T21:42:25.180Z,18.92
2023-08-19T21:44:52.035Z,17.58
2023-08-19T21:47:21.953Z,17.50
2023-08-19T21:49:48.595Z,18.20
2023-08-19T21:52:15.596Z,18.10
2023-08-19T21:54:42.452Z,18.15
2023-08-19T21:57:12.141Z,17.25
2023-08-19T21:59:38.778Z,17.42
2023-08-19T22:02:06.776Z,17.55
2023-08-19T22:04:33.580Z,16.27
2023-08-19T22:07:00.182Z,17.75
2023-08-19T22:09:26.953Z,16.73
2023-08-19T22:11:53.907Z,16.40
2023-08-19T22:14:20.694Z,15.70
2023-08-19T22:16:47.588Z,17.48
2023-08-19T22:19:14.195Z,16.80
2023-08-19T22:21:40.824Z,16.80
2023-08-19T22:24:07.741Z,17.13
2023-08-19T22:26:34.700Z,16.58
2023-08-19T22:29:01.385Z,17.25
2023-08-19T22:31:28.232Z,16.35
2023-08-19T22:33:54.967Z,17.75
2023-08-19T22:36:21.567Z,18.67
2023-08-19T22:38:48.377Z,17.45
2023-08-19T22:41:14.989Z,17.73
2023-08-19T22:43:41.711Z,17.95
2023-08-19T22:46:08.678Z,20.02
2023-08-19T22:48:35.239Z,19.13
2023-08-19T22:51:01.776Z,17.67
2023-08-19T22:53:28.693Z,18.75
2023-08-19T22:55:55.203Z,18.98
2023-08-19T22:58:22.012Z,18.60
2023-08-19T23:00:48.661Z,18.63
2023-08-19T23:03:15.559Z,19.88
2023-08-19T23:05:42.403Z,18.15
2023-08-19T23:08:09.267Z,18.95
2023-08-19T23:10:36.229Z,18.85
2023-08-19T23:13:02.743Z,18.75
2023-08-19T23:15:29.189Z,19.20
2023-08-19T23:17:55.649Z,21.00
2023-08-19T23:20:22.147Z,19.17
2023-08-19T23:22:48.564Z,17.98
2023-08-19T23:25:15.065Z,19.40
2023-08-19T23:27:42.721Z,19.75
2023-08-19T23:30:09.476Z,19.23
2023-08-19T23:32:35.993Z,17.98
2023-08-19T23:35:02.474Z,17.73
2023-08-19T23:37:29.037Z,18.55
2023-08-19T23:39:55.427Z,17.80
2023-08-19T23:42:21.856Z,17.13
2023-08-19T23:44:48.288Z,17.10
2023-08-19T23:47:14.818Z,18.38
2023-08-19T23:49:41.323Z,18.58
2023-08-19T23:52:11.303Z,18.08
2023-08-19T23:54:37.878Z,19.23
2023-08-19T23:57:04.530Z,17.70
2023-08-19T23:59:31.215Z,19.02
